Fargo, ND (58104)

9:50 AM CDT on May 29, 2015 (GMT -0500)
South Fargo | | Change Station
CLOSE
Current Station
Personal Weather Station
Location: Fargo, ND
Elevation: 902 ft
Nearby Weather Stations

Elev 902 ft 46.82 °N, 96.86 °W | Updated 8 minutes ago

Overcast
Overcast
48.7 °F
Feels Like 49 °F
N
2.0
Wind Variable Wind from ENE
Gusts 13.0 mph

Today
High -- | Low -- °F
--% Chance of Precip.
Yesterday
High -- | Low -- °F
Precip. -- in
5:39 AM 9:11 PM
Waxing Gibbous, 84% visible
Pressure 30.06 in
Visibility 10.0 miles
Clouds Overcast 1200 ft
Windchill 49 °F
Dew Point 42 °F
Humidity 79%
Rainfall -999.00 in
Snow Depth Not available.
UV 1 out of 12
Pollen 9.40 out of 12
Air Quality Not available.
Flu Activity Sporadic
METAR KFAR 291353Z 35019G26KT 10SM OVC012 09/07 A3005 RMK AO2 PK WND 36033/1312 SLP178 T00940067

More Conditions Fewer Conditions

Pressure 30.06 in
Visibility 10.0 miles
Clouds Overcast 1200 ft
Windchill 49 °F
Dew Point 42 °F
Humidity 79%
Rainfall -999.00 in
Snow Depth Not available.
UV 1 out of 12
Pollen 9.40 out of 12
Air Quality Not available.
Flu Activity Sporadic
METAR KFAR 291353Z 35019G26KT 10SM OVC012 09/07 A3005 RMK AO2 PK WND 36033/1312 SLP178 T00940067

More Conditions Fewer Conditions

10-Day Weather Forecast

Almanac

Astronomy

May. 29, 2015 Rise Set
Actual Time
Civil Twilight
Nautical Twilight
Astronomical Twilight
Moon
Length of Visible Light
Length of Day
Tomorrow will be .
, % of the Moon is Illuminated

Today's Extremes

State Highs State Lows

Community

WunderPhotos

Upload Photos

1,825,288 photos uploaded!

WunderBlogs® & News

Nearby

Air Quality

  Air Quality AQ Index Pollutant
Not available.

Snow Depth

Station Depth Elevation

Earthquake Activity

City Distance Mag. Time & Date
Minimum magnitude displayed is 2.5.

Coastal Water Temperatures

Place Temperature

Stations

Nearby Weather Stations

Station Location Temp. Windchill Dew Point Humidity Wind Precip. Elev Updated Type